sensor_id;sensor_type;location;lat;lon;timestamp;P1;durP1;ratioP1;P2;durP2;ratioP2
20161;SDS011;51382;53.180;15.414;2024-03-02T00:04:25;83.20;;;35.30;;
20161;SDS011;51382;53.180;15.414;2024-03-02T00:19:40;87.90;;;32.50;;
20161;SDS011;51382;53.180;15.414;2024-03-02T00:34:51;89.50;;;28.30;;
20161;SDS011;51382;53.180;15.414;2024-03-02T00:50:03;96.90;;;30.20;;
20161;SDS011;51382;53.180;15.414;2024-03-02T01:05:18;92.60;;;28.90;;
20161;SDS011;51382;53.180;15.414;2024-03-02T01:20:36;88.80;;;26.90;;
20161;SDS011;51382;53.180;15.414;2024-03-02T01:36:21;81.60;;;27.20;;
20161;SDS011;51382;53.180;15.414;2024-03-02T01:51:32;82.10;;;24.30;;
20161;SDS011;51382;53.180;15.414;2024-03-02T02:06:45;72.00;;;29.30;;
20161;SDS011;51382;53.180;15.414;2024-03-02T02:21:56;75.50;;;25.90;;
20161;SDS011;51382;53.180;15.414;2024-03-02T02:37:08;75.40;;;29.90;;
20161;SDS011;51382;53.180;15.414;2024-03-02T02:52:19;84.10;;;29.30;;
20161;SDS011;51382;53.180;15.414;2024-03-02T03:07:31;79.70;;;24.10;;
20161;SDS011;51382;53.180;15.414;2024-03-02T03:22:42;91.60;;;32.00;;
20161;SDS011;51382;53.180;15.414;2024-03-02T03:37:53;99.00;;;38.20;;
20161;SDS011;51382;53.180;15.414;2024-03-02T03:53:05;85.80;;;34.20;;
20161;SDS011;51382;53.180;15.414;2024-03-02T04:08:16;86.10;;;33.30;;
20161;SDS011;51382;53.180;15.414;2024-03-02T04:23:27;107.50;;;38.60;;
20161;SDS011;51382;53.180;15.414;2024-03-02T04:38:38;103.60;;;37.40;;
20161;SDS011;51382;53.180;15.414;2024-03-02T04:53:50;103.00;;;37.60;;
20161;SDS011;51382;53.180;15.414;2024-03-02T05:09:01;85.50;;;35.00;;
20161;SDS011;51382;53.180;15.414;2024-03-02T05:24:12;95.00;;;40.00;;
20161;SDS011;51382;53.180;15.414;2024-03-02T05:39:23;85.40;;;36.00;;
20161;SDS011;51382;53.180;15.414;2024-03-02T05:54:35;102.20;;;40.10;;
20161;SDS011;51382;53.180;15.414;2024-03-02T06:09:46;104.20;;;40.40;;
20161;SDS011;51382;53.180;15.414;2024-03-02T06:24:55;105.70;;;37.80;;
20161;SDS011;51382;53.180;15.414;2024-03-02T06:40:09;110.90;;;38.60;;
20161;SDS011;51382;53.180;15.414;2024-03-02T06:55:20;95.70;;;35.00;;
20161;SDS011;51382;53.180;15.414;2024-03-02T07:10:34;75.70;;;28.70;;
20161;SDS011;51382;53.180;15.414;2024-03-02T07:25:47;121.20;;;39.60;;
20161;SDS011;51382;53.180;15.414;2024-03-02T07:40:58;100.60;;;38.20;;
20161;SDS011;51382;53.180;15.414;2024-03-02T07:56:10;79.70;;;32.50;;
20161;SDS011;51382;53.180;15.414;2024-03-02T08:11:21;156.20;;;41.20;;
20161;SDS011;51382;53.180;15.414;2024-03-02T08:26:35;78.90;;;32.10;;
20161;SDS011;51382;53.180;15.414;2024-03-02T08:41:47;63.20;;;29.30;;
20161;SDS011;51382;53.180;15.414;2024-03-02T08:56:58;88.50;;;34.20;;
20161;SDS011;51382;53.180;15.414;2024-03-02T09:12:10;95.30;;;34.90;;
20161;SDS011;51382;53.180;15.414;2024-03-02T09:27:22;90.70;;;30.70;;
20161;SDS011;51382;53.180;15.414;2024-03-02T09:42:33;80.60;;;34.00;;
20161;SDS011;51382;53.180;15.414;2024-03-02T09:57:45;91.30;;;34.70;;
20161;SDS011;51382;53.180;15.414;2024-03-02T10:13:05;85.70;;;31.40;;
20161;SDS011;51382;53.180;15.414;2024-03-02T10:28:17;92.60;;;33.10;;
20161;SDS011;51382;53.180;15.414;2024-03-02T10:43:29;93.70;;;33.50;;
20161;SDS011;51382;53.180;15.414;2024-03-02T10:58:40;102.70;;;35.40;;
20161;SDS011;51382;53.180;15.414;2024-03-02T11:13:54;86.00;;;34.80;;
20161;SDS011;51382;53.180;15.414;2024-03-02T11:29:09;88.30;;;34.30;;
20161;SDS011;51382;53.180;15.414;2024-03-02T11:44:43;106.60;;;39.30;;
20161;SDS011;51382;53.180;15.414;2024-03-02T11:59:55;82.50;;;35.30;;
20161;SDS011;51382;53.180;15.414;2024-03-02T12:15:09;86.00;;;34.90;;
20161;SDS011;51382;53.180;15.414;2024-03-02T12:30:21;109.40;;;39.20;;
20161;SDS011;51382;53.180;15.414;2024-03-02T12:45:32;82.00;;;30.10;;
20161;SDS011;51382;53.180;15.414;2024-03-02T13:00:43;92.80;;;35.00;;
20161;SDS011;51382;53.180;15.414;2024-03-02T13:15:58;88.80;;;35.00;;
20161;SDS011;51382;53.180;15.414;2024-03-02T13:31:09;77.50;;;30.10;;
20161;SDS011;51382;53.180;15.414;2024-03-02T13:46:20;79.80;;;30.40;;
20161;SDS011;51382;53.180;15.414;2024-03-02T14:01:34;85.00;;;29.50;;
20161;SDS011;51382;53.180;15.414;2024-03-02T14:16:45;85.60;;;31.20;;
20161;SDS011;51382;53.180;15.414;2024-03-02T14:31:56;99.70;;;36.00;;
20161;SDS011;51382;53.180;15.414;2024-03-02T14:47:07;97.40;;;36.00;;
20161;SDS011;51382;53.180;15.414;2024-03-02T15:02:19;93.90;;;35.90;;
20161;SDS011;51382;53.180;15.414;2024-03-02T15:17:30;137.90;;;65.80;;
20161;SDS011;51382;53.180;15.414;2024-03-02T15:32:44;111.40;;;43.80;;
20161;SDS011;51382;53.180;15.414;2024-03-02T15:47:56;101.30;;;36.50;;
20161;SDS011;51382;53.180;15.414;2024-03-02T16:03:07;104.10;;;40.60;;
20161;SDS011;51382;53.180;15.414;2024-03-02T16:18:21;100.70;;;40.50;;
20161;SDS011;51382;53.180;15.414;2024-03-02T16:33:32;102.10;;;40.00;;
20161;SDS011;51382;53.180;15.414;2024-03-02T16:48:44;86.80;;;34.20;;
20161;SDS011;51382;53.180;15.414;2024-03-02T17:03:55;107.80;;;41.30;;
20161;SDS011;51382;53.180;15.414;2024-03-02T17:19:06;125.10;;;55.60;;
20161;SDS011;51382;53.180;15.414;2024-03-02T17:34:18;116.60;;;49.00;;
20161;SDS011;51382;53.180;15.414;2024-03-02T17:49:29;104.20;;;43.60;;
20161;SDS011;51382;53.180;15.414;2024-03-02T18:04:40;88.60;;;38.90;;
20161;SDS011;51382;53.180;15.414;2024-03-02T18:19:53;79.10;;;33.10;;
20161;SDS011;51382;53.180;15.414;2024-03-02T18:35:05;91.50;;;34.80;;
20161;SDS011;51382;53.180;15.414;2024-03-02T18:50:18;100.20;;;36.40;;
20161;SDS011;51382;53.180;15.414;2024-03-02T19:05:29;82.60;;;30.20;;
20161;SDS011;51382;53.180;15.414;2024-03-02T19:20:40;89.10;;;30.50;;
20161;SDS011;51382;53.180;15.414;2024-03-02T19:35:52;74.70;;;29.40;;
20161;SDS011;51382;53.180;15.414;2024-03-02T19:51:07;81.60;;;27.80;;
20161;SDS011;51382;53.180;15.414;2024-03-02T20:06:20;86.20;;;27.00;;
20161;SDS011;51382;53.180;15.414;2024-03-02T20:21:33;73.40;;;24.40;;
20161;SDS011;51382;53.180;15.414;2024-03-02T20:36:44;63.80;;;25.40;;
20161;SDS011;51382;53.180;15.414;2024-03-02T20:51:55;66.50;;;24.70;;
20161;SDS011;51382;53.180;15.414;2024-03-02T21:07:07;68.70;;;27.00;;
20161;SDS011;51382;53.180;15.414;2024-03-02T21:22:18;64.30;;;24.80;;
20161;SDS011;51382;53.180;15.414;2024-03-02T21:37:34;78.20;;;27.60;;
20161;SDS011;51382;53.180;15.414;2024-03-02T21:52:48;82.50;;;26.80;;
20161;SDS011;51382;53.180;15.414;2024-03-02T22:08:03;69.80;;;28.20;;
20161;SDS011;51382;53.180;15.414;2024-03-02T22:23:16;86.30;;;31.10;;
20161;SDS011;51382;53.180;15.414;2024-03-02T22:38:27;87.40;;;29.90;;
20161;SDS011;51382;53.180;15.414;2024-03-02T22:53:38;95.70;;;32.40;;
20161;SDS011;51382;53.180;15.414;2024-03-02T23:08:50;75.70;;;22.40;;
20161;SDS011;51382;53.180;15.414;2024-03-02T23:24:01;77.40;;;26.50;;
20161;SDS011;51382;53.180;15.414;2024-03-02T23:39:12;76.60;;;26.70;;
20161;SDS011;51382;53.180;15.414;2024-03-02T23:54:43;98.70;;;33.50;;
